Time;durP1;ratioP1;P1;durP2;ratioP2;P2;SDS_P1;SDS_P2;PMS_P1;PMS_P2;Temp;Humidity;BMP_temperature;BMP_pressure;BME280_temperature;BME280_humidity;BME280_pressure;Samples;Min_cycle;Max_cycle;Signal;HPM_P1;HPM_P2
2021/05/31 00:01:14;;;;;;;16.33;14.17;;;;;;;13.71;65.08;102279.81;5041099;28;20605;-67
2021/05/31 00:03:40;;;;;;;15.67;13.80;;;;;;;13.90;64.90;102274.97;5041352;28;20174;-67
2021/05/31 00:06:05;;;;;;;16.03;13.90;;;;;;;14.46;63.59;102280.44;5041848;28;20162;-67
2021/05/31 00:08:31;;;;;;;21.33;14.50;;;;;;;13.58;65.68;102275.16;5041093;28;20610;-67
2021/05/31 00:10:56;;;;;;;21.13;16.00;;;;;;;13.67;65.80;102274.47;5040994;28;20166;-67
2021/05/31 00:13:22;;;;;;;16.27;14.07;;;;;;;13.87;65.18;102285.38;5041316;28;20170;-67
2021/05/31 00:15:47;;;;;;;15.53;13.93;;;;;;;13.53;65.85;102274.16;5041049;28;20181;-68
2021/05/31 00:18:16;;;;;;;16.90;13.93;;;;;;;14.04;64.55;102268.25;5040933;28;20202;-67
2021/05/31 00:20:42;;;;;;;18.53;14.70;;;;;;;13.70;65.20;102269.31;5041354;28;20162;-67
2021/05/31 00:23:08;;;;;;;19.47;16.03;;;;;;;13.86;64.94;102265.28;5040750;28;20869;-68
2021/05/31 00:25:33;;;;;;;16.83;14.03;;;;;;;13.32;66.62;102262.31;5040623;28;20528;-66
2021/05/31 00:27:58;;;;;;;16.10;13.50;;;;;;;13.04;67.77;102272.13;5041223;28;20194;-67
2021/05/31 00:30:24;;;;;;;17.93;14.53;;;;;;;13.50;67.14;102269.72;5040656;28;20536;-68
2021/05/31 00:32:51;;;;;;;20.40;15.33;;;;;;;12.96;67.99;102265.84;5040659;28;20221;-67
2021/05/31 00:35:16;;;;;;;23.47;15.80;;;;;;;13.05;68.11;102259.94;5041089;28;20166;-66
2021/05/31 00:37:42;;;;;;;19.53;14.93;;;;;;;13.03;68.07;102254.69;5040594;28;20409;-67
2021/05/31 00:40:08;;;;;;;18.90;14.27;;;;;;;13.75;65.76;102250.19;5040605;28;20201;-66
2021/05/31 00:42:34;;;;;;;19.70;14.33;;;;;;;13.04;67.53;102256.44;5040936;28;20272;-66
2021/05/31 00:44:59;;;;;;;17.23;14.90;;;;;;;13.44;66.46;102257.38;5040485;28;20496;-67
2021/05/31 00:47:25;;;;;;;20.23;14.60;;;;;;;13.40;66.07;102258.16;5040439;28;20178;-67
2021/05/31 00:49:50;;;;;;;16.53;14.73;;;;;;;12.91;68.25;102262.25;5040968;28;20163;-67
2021/05/31 00:52:15;;;;;;;16.07;14.37;;;;;;;13.48;66.37;102255.72;5040176;28;20170;-66
2021/05/31 00:54:41;;;;;;;15.37;13.87;;;;;;;13.29;66.88;102254.41;5040308;28;20193;-67
2021/05/31 00:57:06;;;;;;;20.37;14.70;;;;;;;13.24;67.21;102251.66;5040561;28;20245;-67
2021/05/31 00:59:32;;;;;;;18.27;15.00;;;;;;;13.06;67.37;102264.34;5040237;28;20166;-66
2021/05/31 01:01:57;;;;;;;16.23;14.50;;;;;;;13.87;65.07;102252.19;5039982;28;20216;-67
2021/05/31 01:04:22;;;;;;;16.87;14.50;;;;;;;13.44;65.96;102251.28;5040200;28;20163;-66
2021/05/31 01:06:59;;;;;;;16.73;14.07;;;;;;;13.24;66.58;102256.03;5039695;28;20167;-66
2021/05/31 01:09:31;;;;;;;16.20;14.60;;;;;;;13.22;66.03;102261.25;5039469;28;20205;-67
2021/05/31 01:12:23;;;;;;;15.13;13.13;;;;;;;13.54;65.27;102257.59;5039251;28;20713;-67
2021/05/31 01:15:01;;;;;;;16.00;14.50;;;;;;;14.06;63.38;102255.16;5039208;28;20405;-67
2021/05/31 01:17:42;;;;;;;21.10;14.60;;;;;;;14.05;63.93;102256.91;5039970;28;20404;-66
2021/05/31 01:20:08;;;;;;;19.70;15.57;;;;;;;13.91;64.16;102256.63;5039883;28;20421;-67
2021/05/31 01:22:35;;;;;;;16.53;13.10;;;;;;;13.88;63.30;102253.06;5039675;28;20405;-68
2021/05/31 01:25:05;;;;;;;14.60;13.00;;;;;;;13.89;63.49;102253.09;5039713;28;20436;-66
2021/05/31 01:27:41;;;;;;;19.23;13.73;;;;;;;14.16;61.95;102244.00;5040013;28;20442;-67
2021/05/31 01:30:10;;;;;;;16.33;13.30;;;;;;;14.06;62.64;102242.94;5039722;28;20421;-66
2021/05/31 01:32:41;;;;;;;15.83;13.77;;;;;;;13.86;62.73;102242.53;5039396;28;20408;-66
2021/05/31 01:35:11;;;;;;;14.30;12.17;;;;;;;13.95;61.84;102244.44;5038898;28;20417;-66
2021/05/31 01:37:38;;;;;;;17.63;13.43;;;;;;;13.97;61.58;102255.88;5039536;28;20420;-67
2021/05/31 01:40:06;;;;;;;14.77;12.97;;;;;;;14.16;61.54;102244.00;5038645;28;20468;-67
2021/05/31 01:42:32;;;;;;;14.93;12.60;;;;;;;13.72;61.08;102247.53;5039186;28;20449;-66
2021/05/31 01:44:58;;;;;;;16.50;13.60;;;;;;;13.79;61.27;102244.16;5039171;28;20884;-66
2021/05/31 01:47:24;;;;;;;14.10;11.97;;;;;;;13.49;61.89;102249.66;5039106;28;20166;-67
2021/05/31 01:49:50;;;;;;;12.87;11.60;;;;;;;13.44;61.85;102244.28;5038393;28;20458;-67
2021/05/31 01:52:15;;;;;;;15.60;12.03;;;;;;;13.62;60.85;102246.41;5038812;28;20173;-67
2021/05/31 01:54:41;;;;;;;17.17;11.70;;;;;;;13.73;60.32;102241.41;5038482;28;20420;-66
2021/05/31 01:57:07;;;;;;;14.30;11.53;;;;;;;13.52;62.19;102243.56;5039078;28;20178;-68
2021/05/31 01:59:33;;;;;;;12.77;11.47;;;;;;;13.60;60.51;102247.25;5038769;28;20225;-67
2021/05/31 02:01:59;;;;;;;12.77;11.37;;;;;;;14.00;60.00;102244.56;5038232;28;20413;-67
2021/05/31 02:04:24;;;;;;;17.20;12.27;;;;;;;13.43;61.04;102241.66;5039017;28;20421;-66
2021/05/31 02:06:53;;;;;;;12.70;11.17;;;;;;;12.89;62.97;102246.47;5039347;28;20420;-67
2021/05/31 02:09:20;;;;;;;15.37;12.07;;;;;;;13.44;61.08;102241.66;5038771;28;20606;-66
2021/05/31 02:11:54;;;;;;;11.97;10.77;;;;;;;13.46;61.15;102239.06;5038654;28;20414;-67
2021/05/31 02:14:20;;;;;;;13.83;11.23;;;;;;;13.25;61.54;102239.47;5038250;28;20444;-68
2021/05/31 02:17:02;;;;;;;14.27;12.10;;;;;;;13.50;61.65;102240.91;5037921;28;20409;-67
2021/05/31 02:19:28;;;;;;;13.23;11.03;;;;;;;13.54;61.23;102231.41;5038705;28;20174;-67
2021/05/31 02:21:54;;;;;;;14.37;12.93;;;;;;;13.88;60.37;102234.72;5037910;28;20420;-68
2021/05/31 02:24:20;;;;;;;15.83;12.13;;;;;;;13.53;61.59;102234.84;5037828;28;20547;-68
2021/05/31 02:26:46;;;;;;;13.63;11.73;;;;;;;13.20;62.55;102236.72;5038571;28;20539;-68
2021/05/31 02:29:11;;;;;;;12.83;11.30;;;;;;;13.01;62.30;102240.66;5038574;28;20436;-68
2021/05/31 02:31:37;;;;;;;12.80;11.60;;;;;;;12.91;62.04;102239.56;5037680;28;20178;-67
2021/05/31 02:34:02;;;;;;;17.93;11.37;;;;;;;13.38;61.40;102238.03;5037689;28;20170;-67
2021/05/31 02:36:27;;;;;;;13.63;11.90;;;;;;;12.54;63.64;102245.59;5038230;28;20572;-67
2021/05/31 02:38:53;;;;;;;11.87;10.60;;;;;;;13.23;62.04;102238.53;5038388;28;20454;-67
2021/05/31 02:41:18;;;;;;;13.80;10.93;;;;;;;13.21;62.55;102238.50;5038301;28;20210;-67
2021/05/31 02:43:44;;;;;;;12.93;11.63;;;;;;;13.33;62.24;102235.28;5038640;28;20292;-67
2021/05/31 02:46:09;;;;;;;15.87;12.10;;;;;;;13.31;61.76;102236.97;5038407;28;20177;-68
2021/05/31 02:48:34;;;;;;;13.17;11.70;;;;;;;13.39;61.84;102248.53;5038313;28;20571;-67
2021/05/31 02:51:00;;;;;;;14.47;13.07;;;;;;;13.46;61.63;102239.06;5038682;28;20277;-67
2021/05/31 02:53:26;;;;;;;14.30;12.13;;;;;;;13.27;62.27;102236.03;5038086;28;20220;-67
2021/05/31 02:55:51;;;;;;;14.73;11.97;;;;;;;13.36;62.34;102240.63;5038167;28;20224;-67
2021/05/31 02:58:17;;;;;;;13.33;11.80;;;;;;;13.25;62.43;102236.84;5038585;28;20401;-67
2021/05/31 03:00:43;;;;;;;15.63;11.87;;;;;;;13.51;60.33;102237.44;5038022;28;20257;-68
2021/05/31 03:03:09;;;;;;;13.47;11.50;;;;;;;13.15;61.67;102235.72;5038010;28;20512;-67
2021/05/31 03:05:35;;;;;;;13.13;11.83;;;;;;;13.24;62.54;102235.09;5038653;28;20288;-67
2021/05/31 03:08:00;;;;;;;12.77;11.47;;;;;;;13.25;61.93;102234.25;5038066;28;20486;-66
2021/05/31 03:10:27;;;;;;;14.10;12.60;;;;;;;13.26;62.38;102238.59;5038158;28;20170;-68
2021/05/31 03:12:52;;;;;;;14.30;12.80;;;;;;;13.31;62.15;102239.59;5038262;28;20512;-68
2021/05/31 03:15:18;;;;;;;18.53;13.70;;;;;;;13.06;63.01;102239.03;5038083;28;20454;-68
2021/05/31 03:17:45;;;;;;;14.97;12.10;;;;;;;12.98;63.55;102240.59;5038250;28;20193;-69
2021/05/31 03:20:11;;;;;;;14.80;12.67;;;;;;;13.18;63.01;102240.16;5037798;28;20405;-68
2021/05/31 03:22:37;;;;;;;17.53;12.73;;;;;;;13.07;63.70;102235.59;5037768;28;20491;-68
2021/05/31 03:25:03;;;;;;;15.50;12.73;;;;;;;13.06;63.53;102236.41;5037830;28;20544;-67
2021/05/31 03:27:29;;;;;;;15.13;12.30;;;;;;;13.07;63.77;102240.81;5037580;28;20185;-67
2021/05/31 03:29:54;;;;;;;14.40;12.90;;;;;;;13.05;64.00;102239.88;5040973;28;20810;-67
2021/05/31 03:32:19;;;;;;;15.73;14.00;;;;;;;12.90;64.32;102247.38;5041722;28;20170;-66
2021/05/31 03:34:45;;;;;;;13.80;12.33;;;;;;;13.19;63.58;102245.47;5042325;28;20292;-67
2021/05/31 03:37:10;;;;;;;14.80;12.60;;;;;;;13.16;63.36;102245.38;5041765;28;20584;-66
2021/05/31 03:39:35;;;;;;;14.20;12.50;;;;;;;13.28;62.86;102239.53;5041814;28;20174;-67
2021/05/31 03:42:01;;;;;;;19.90;14.37;;;;;;;13.53;62.43;102235.75;5041921;28;20167;-67
2021/05/31 03:44:26;;;;;;;13.70;11.70;;;;;;;14.09;60.72;102240.38;5041640;28;20176;-68
2021/05/31 03:46:51;;;;;;;13.83;11.90;;;;;;;14.83;58.15;102232.97;5041492;28;20170;-66
2021/05/31 03:49:17;;;;;;;15.23;11.83;;;;;;;15.21;56.49;102234.38;5042040;28;20194;-68
2021/05/31 03:51:44;;;;;;;14.27;12.77;;;;;;;15.75;54.55;102230.72;5041351;28;20174;-67
2021/05/31 03:54:10;;;;;;;12.60;11.27;;;;;;;16.38;53.66;102229.69;5040754;28;20563;-66
2021/05/31 03:56:35;;;;;;;12.77;11.50;;;;;;;16.84;51.58;102227.44;5041940;28;20405;-66
2021/05/31 03:59:00;;;;;;;12.73;11.43;;;;;;;17.75;49.60;102221.81;5040815;28;20216;-67
2021/05/31 04:01:25;;;;;;;12.03;10.87;;;;;;;17.47;49.92;102225.22;5041372;28;20479;-68
2021/05/31 04:03:52;;;;;;;14.00;12.70;;;;;;;17.85;48.85;102218.31;5041803;28;20209;-68
2021/05/31 04:14:06;;;;;;;10.23;9.23;;;;;;;18.85;45.02;102201.72;5041105;28;20399;-69
2021/05/31 04:16:32;;;;;;;10.27;9.30;;;;;;;19.24;42.98;102204.28;5041002;28;20174;-68
2021/05/31 04:18:57;;;;;;;10.10;9.07;;;;;;;19.45;42.20;102204.22;5040759;28;20424;-67
2021/05/31 04:21:22;;;;;;;10.23;8.53;;;;;;;19.44;41.30;102196.28;5041422;28;20402;-68
2021/05/31 04:23:48;;;;;;;9.47;8.67;;;;;;;20.14;39.78;102192.41;5040854;28;20166;-68
2021/05/31 04:26:13;;;;;;;9.93;9.03;;;;;;;20.16;39.41;102195.94;5040662;28;20268;-67
2021/05/31 04:28:39;;;;;;;9.27;8.43;;;;;;;20.19;39.85;102198.56;5041126;28;20202;-67
2021/05/31 04:31:04;;;;;;;11.10;8.77;;;;;;;19.61;40.62;102196.25;5040671;28;20523;-67
2021/05/31 04:33:29;;;;;;;9.53;8.47;;;;;;;19.89;39.64;102198.75;5040530;28;20177;-67
2021/05/31 04:35:55;;;;;;;9.30;8.30;;;;;;;21.12;37.29;102195.09;5040933;28;20177;-66
2021/05/31 04:38:20;;;;;;;12.10;7.97;;;;;;;21.08;35.91;102195.13;5040548;28;20178;-67
2021/05/31 04:40:46;;;;;;;7.97;7.27;;;;;;;20.26;37.82;102198.53;5039160;28;20193;-68
2021/05/31 04:43:11;;;;;;;9.30;8.40;;;;;;;20.89;36.50;102187.41;5040570;28;20540;-67
2021/05/31 04:45:36;;;;;;;8.00;7.20;;;;;;;21.28;34.62;102189.59;5040074;28;20511;-67
2021/05/31 04:48:02;;;;;;;9.03;8.00;;;;;;;21.18;35.33;102186.19;5040086;28;20202;-68
2021/05/31 04:50:27;;;;;;;8.33;7.47;;;;;;;21.67;34.20;102190.88;5040918;28;20169;-66
2021/05/31 04:52:52;;;;;;;8.67;7.63;;;;;;;21.66;33.99;102189.16;5040047;28;20193;-66
2021/05/31 04:55:18;;;;;;;7.90;7.17;;;;;;;21.49;34.08;102194.66;5040137;28;20181;-66
2021/05/31 04:57:45;;;;;;;8.60;7.63;;;;;;;21.96;33.09;102194.03;5040796;28;20173;-67
2021/05/31 05:00:11;;;;;;;7.67;6.97;;;;;;;22.38;32.48;102189.00;5040352;28;20170;-67
2021/05/31 05:02:37;;;;;;;7.87;7.20;;;;;;;22.06;33.47;102182.38;5039784;28;20420;-67
2021/05/31 05:05:03;;;;;;;8.20;7.40;;;;;;;21.39;34.21;102198.28;5040404;28;20457;-67
2021/05/31 05:07:28;;;;;;;9.43;7.30;;;;;;;20.65;35.83;102196.44;5040019;28;20181;-67
2021/05/31 05:09:53;;;;;;;8.50;7.70;;;;;;;22.00;33.50;102193.97;5039938;28;20221;-67
2021/05/31 05:12:19;;;;;;;8.10;7.20;;;;;;;20.75;34.62;102189.31;5039844;28;20166;-69
2021/05/31 05:14:44;;;;;;;7.53;6.83;;;;;;;23.46;29.74;102181.66;5039955;28;20177;-70
2021/05/31 05:17:09;;;;;;;7.70;7.00;;;;;;;23.13;29.74;102181.44;5039931;28;20175;-69
2021/05/31 05:19:35;;;;;;;7.40;6.70;;;;;;;24.14;27.84;102166.81;5040146;28;20162;-68
2021/05/31 05:22:00;;;;;;;6.83;6.13;;;;;;;22.87;29.79;102181.94;5039592;28;20185;-67
2021/05/31 05:24:25;;;;;;;7.80;6.13;;;;;;;20.67;33.45;102191.97;5042345;28;20224;-68
2021/05/31 05:26:51;;;;;;;9.13;5.93;;;;;;;22.50;31.36;102183.47;5059714;28;20489;-69
2021/05/31 05:29:16;;;;;;;7.07;6.37;;;;;;;24.35;27.86;102180.53;5059400;28;20229;-69
2021/05/31 05:31:41;;;;;;;5.40;4.90;;;;;;;23.94;25.52;102185.09;5059435;28;20272;-68
2021/05/31 05:34:07;;;;;;;5.37;4.83;;;;;;;24.11;25.45;102179.34;5059511;28;20193;-69
2021/05/31 05:36:43;;;;;;;5.37;4.80;;;;;;;24.25;25.99;102176.31;5058988;28;20170;-69
2021/05/31 05:39:19;;;;;;;5.53;5.07;;;;;;;24.48;25.73;102181.97;5059165;28;20173;-67
2021/05/31 05:49:40;;;;;;;5.43;4.93;;;;;;;25.21;24.00;102178.22;5059153;28;20550;-68
2021/05/31 05:52:07;;;;;;;8.13;5.00;;;;;;;23.65;25.48;102178.59;5058435;28;20591;-69
2021/05/31 05:54:32;;;;;;;5.20;4.70;;;;;;;23.66;25.95;102183.88;5058935;28;20169;-69
2021/05/31 05:56:58;;;;;;;8.10;4.90;;;;;;;24.71;24.48;102177.84;5059163;28;20411;-69
2021/05/31 05:59:23;;;;;;;6.10;4.80;;;;;;;24.87;23.64;102178.31;5058986;28;20550;-69
2021/05/31 06:01:50;;;;;;;6.70;5.03;;;;;;;25.04;24.16;102183.16;5058853;28;20252;-69
2021/05/31 06:04:16;;;;;;;7.07;5.10;;;;;;;22.44;27.56;102186.22;5059034;28;20158;-70
2021/05/31 06:06:41;;;;;;;5.13;4.50;;;;;;;24.84;24.81;102181.03;5058604;28;20493;-70
2021/05/31 06:09:08;;;;;;;6.03;4.87;;;;;;;26.02;23.49;102181.13;5057406;28;20213;-69
2021/05/31 06:11:33;;;;;;;8.73;5.20;;;;;;;25.58;23.91;102178.94;5058386;28;20403;-69
2021/05/31 06:13:59;;;;;;;6.70;5.77;;;;;;;25.80;24.07;102187.16;5058437;28;20474;-69
2021/05/31 06:16:24;;;;;;;6.37;5.63;;;;;;;25.27;24.99;102186.97;5058514;28;20177;-69
2021/05/31 06:18:50;;;;;;;7.37;5.63;;;;;;;26.54;23.04;102178.53;5058927;28;20162;-69
2021/05/31 06:21:16;;;;;;;5.40;4.90;;;;;;;26.79;22.51;102175.91;5057893;28;20602;-69
2021/05/31 06:23:41;;;;;;;6.30;4.90;;;;;;;26.81;22.01;102175.88;5058748;28;20487;-69
2021/05/31 06:26:06;;;;;;;5.73;5.17;;;;;;;26.83;22.33;102174.00;5058324;28;20347;-69
2021/05/31 06:28:31;;;;;;;7.20;5.30;;;;;;;25.54;23.56;102186.16;5058379;28;20209;-69
2021/05/31 06:30:58;;;;;;;5.40;4.83;;;;;;;25.09;24.43;102185.72;5058367;28;20208;-69
2021/05/31 06:33:23;;;;;;;6.63;4.60;;;;;;;26.76;20.80;102175.16;5058171;28;20420;-69
2021/05/31 06:35:50;;;;;;;4.90;4.40;;;;;;;26.08;20.46;102175.63;5058359;28;20173;-69
2021/05/31 06:38:15;;;;;;;3.73;3.43;;;;;;;25.21;20.86;102178.22;5058582;28;20170;-69
2021/05/31 06:40:41;;;;;;;4.80;4.07;;;;;;;24.71;21.58;102185.84;5058086;28;20445;-69
2021/05/31 06:43:06;;;;;;;5.60;4.17;;;;;;;23.36;23.15;102185.44;5058010;28;20482;-69
2021/05/31 06:45:33;;;;;;;4.70;4.30;;;;;;;24.13;22.82;102183.72;5058403;28;20174;-70
2021/05/31 06:48:00;;;;;;;4.30;4.00;;;;;;;23.48;23.84;102192.28;5057891;28;20194;-72
2021/05/31 06:50:28;;;;;;;6.27;3.80;;;;;;;25.41;20.60;102184.81;5058057;28;20430;-68
2021/05/31 06:52:53;;;;;;;7.87;4.77;;;;;;;26.32;20.05;102187.31;5058213;28;20422;-68
2021/05/31 06:55:20;;;;;;;4.43;4.03;;;;;;;26.70;19.37;102184.25;5057872;28;20423;-68
2021/05/31 06:57:50;;;;;;;8.03;4.40;;;;;;;27.22;19.30;102174.34;5057795;28;20177;-71
2021/05/31 07:00:16;;;;;;;5.60;4.20;;;;;;;24.41;22.36;102191.03;5058056;28;20495;-71
2021/05/31 07:02:42;;;;;;;5.03;4.20;;;;;;;24.53;22.43;102195.16;5057137;28;20416;-69
2021/05/31 07:05:09;;;;;;;4.67;4.27;;;;;;;24.13;22.97;102194.38;5058036;28;20431;-69
2021/05/31 07:07:35;;;;;;;7.53;4.50;;;;;;;25.87;20.61;102191.41;5058111;28;20181;-69
2021/05/31 07:10:01;;;;;;;4.47;4.07;;;;;;;26.35;21.14;102187.19;5056869;28;20775;-69
2021/05/31 07:12:26;;;;;;;4.30;3.90;;;;;;;26.55;20.25;102185.66;5057501;28;20515;-69
2021/05/31 07:14:52;;;;;;;5.87;4.50;;;;;;;26.44;20.87;102190.47;5058215;28;20216;-69
2021/05/31 07:17:18;;;;;;;4.63;3.73;;;;;;;27.89;18.99;102187.84;5057736;28;20193;-68
2021/05/31 07:19:44;;;;;;;4.30;3.90;;;;;;;27.65;19.40;102184.34;5057050;28;20169;-68
2021/05/31 07:22:17;;;;;;;4.40;3.97;;;;;;;28.38;18.75;102180.47;5058057;28;20482;-68
2021/05/31 07:24:43;;;;;;;6.47;4.20;;;;;;;28.11;18.93;102182.50;5057447;28;20909;-68
2021/05/31 07:27:09;;;;;;;5.43;3.87;;;;;;;27.32;19.84;102176.63;5057689;28;20462;-68
2021/05/31 07:29:34;;;;;;;4.50;4.10;;;;;;;27.40;19.59;102185.31;5058101;28;20212;-69
2021/05/31 07:32:00;;;;;;;4.70;4.20;;;;;;;27.62;20.71;102173.75;5057482;28;20424;-69
2021/05/31 07:34:25;;;;;;;4.37;3.93;;;;;;;28.36;18.21;102174.31;5057459;28;20220;-70
2021/05/31 07:36:51;;;;;;;5.60;3.80;;;;;;;26.92;20.01;102176.34;5057390;28;20440;-67
2021/05/31 07:39:16;;;;;;;5.23;4.00;;;;;;;27.51;19.35;102175.03;5057509;28;20201;-68
2021/05/31 07:41:42;;;;;;;5.63;4.23;;;;;;;27.27;20.00;102168.78;5057284;28;20177;-68
2021/05/31 07:44:07;;;;;;;4.23;3.83;;;;;;;28.35;18.63;102177.91;5057826;28;20468;-68
2021/05/31 07:46:32;;;;;;;4.63;4.00;;;;;;;29.27;18.30;102173.94;5057369;28;20503;-70
2021/05/31 07:48:57;;;;;;;4.13;3.70;;;;;;;28.89;18.71;102170.22;5057350;28;20202;-68
2021/05/31 07:51:23;;;;;;;5.53;4.30;;;;;;;28.65;18.68;102163.28;5057846;28;20173;-68
2021/05/31 07:53:52;;;;;;;4.60;3.80;;;;;;;28.24;19.22;102169.47;5057179;28;20220;-68
2021/05/31 07:56:18;;;;;;;5.27;4.03;;;;;;;27.52;20.15;102168.75;5057146;28;20465;-69
2021/05/31 07:58:44;;;;;;;4.67;4.03;;;;;;;29.57;18.25;102167.09;5057743;28;20407;-68
2021/05/31 08:01:10;;;;;;;4.33;3.93;;;;;;;29.15;18.10;102162.78;5057254;28;20416;-68
2021/05/31 08:03:36;;;;;;;4.20;3.80;;;;;;;29.49;17.83;102158.53;5057269;28;20408;-68
2021/05/31 08:06:02;;;;;;;5.43;3.60;;;;;;;26.51;20.27;102159.94;5057480;28;20477;-69
2021/05/31 08:08:28;;;;;;;4.20;3.80;;;;;;;26.52;19.82;102164.34;5057232;28;20408;-69
2021/05/31 08:10:54;;;;;;;4.10;3.70;;;;;;;24.21;22.20;102171.06;5057404;28;20169;-70
2021/05/31 08:13:19;;;;;;;4.00;3.70;;;;;;;23.73;23.17;102165.97;5057384;28;20169;-69
2021/05/31 08:15:45;;;;;;;4.40;4.00;;;;;;;27.59;18.93;102163.16;5060452;28;20423;-69
2021/05/31 08:18:11;;;;;;;6.27;3.90;;;;;;;26.95;19.79;102167.31;5060785;28;20169;-69
2021/05/31 08:20:37;;;;;;;5.80;3.70;;;;;;;28.41;18.79;102160.69;5061203;28;20176;-68
2021/05/31 08:23:03;;;;;;;5.23;4.50;;;;;;;25.59;20.90;102170.03;5060439;28;20419;-69
2021/05/31 08:25:28;;;;;;;3.50;3.20;;;;;;;27.61;17.86;102155.94;5060340;28;20480;-70
2021/05/31 08:27:53;;;;;;;5.50;4.30;;;;;;;25.11;20.97;102163.38;5061023;28;20181;-71
2021/05/31 08:30:20;;;;;;;4.23;3.90;;;;;;;25.46;20.45;102164.16;5060637;28;20173;-69
2021/05/31 08:32:45;;;;;;;5.13;3.80;;;;;;;27.67;18.63;102145.84;5060194;28;20165;-67
2021/05/31 08:35:11;;;;;;;3.90;3.53;;;;;;;28.07;18.02;102151.41;5060859;28;20458;-67
2021/05/31 08:37:36;;;;;;;4.97;3.70;;;;;;;27.47;18.63;102153.78;5059655;28;20604;-68
2021/05/31 08:40:03;;;;;;;3.93;3.63;;;;;;;27.04;19.04;102156.28;5060421;28;20177;-67
2021/05/31 08:42:29;;;;;;;3.87;3.50;;;;;;;27.61;17.64;102153.25;5060574;28;20184;-68
2021/05/31 08:44:54;;;;;;;3.73;3.43;;;;;;;27.83;18.01;102151.47;5060251;28;20424;-68
2021/05/31 08:47:20;;;;;;;3.90;3.50;;;;;;;29.83;17.88;102140.75;5060055;28;20174;-68
2021/05/31 08:49:46;;;;;;;6.00;3.87;;;;;;;27.60;18.85;102149.69;5060589;28;20244;-68
2021/05/31 08:52:11;;;;;;;4.87;3.50;;;;;;;28.63;17.17;102139.19;5042011;28;20178;-67
2021/05/31 08:54:36;;;;;;;3.90;3.60;;;;;;;27.59;18.77;102150.63;5040304;28;20452;-65
2021/05/31 08:57:02;;;;;;;4.33;3.50;;;;;;;27.50;18.76;102151.88;5070239;28;20256;-66
2021/05/31 08:59:27;;;;;;;3.67;3.30;;;;;;;26.12;19.55;102155.03;5066628;28;20181;-66
2021/05/31 09:01:52;;;;;;;3.60;3.30;;;;;;;28.28;18.00;102143.38;5058486;28;20182;-66
2021/05/31 09:04:18;;;;;;;4.30;3.63;;;;;;;28.70;18.17;102145.19;5067852;28;20199;-68
2021/05/31 09:06:54;;;;;;;5.67;3.60;;;;;;;26.89;19.00;102142.53;5046988;28;20215;-68
2021/05/31 09:09:19;;;;;;;4.90;3.27;;;;;;;26.63;19.51;102140.78;5047056;28;20209;-67
2021/05/31 09:11:57;;;;;;;5.43;3.87;;;;;;;26.27;20.07;102138.47;5051551;28;20454;-68
2021/05/31 09:14:23;;;;;;;8.90;4.23;;;;;;;25.61;20.96;102138.78;5079483;28;20171;-67
2021/05/31 09:16:48;;;;;;;3.80;3.50;;;;;;;23.86;23.43;102148.81;5046103;28;20893;-67
2021/05/31 09:19:14;;;;;;;3.67;3.37;;;;;;;26.08;20.35;102132.88;5043161;28;20174;-67
2021/05/31 09:21:39;;;;;;;4.47;4.00;;;;;;;24.75;21.66;102146.63;5041630;28;20182;-67
2021/05/31 09:24:07;;;;;;;5.23;3.97;;;;;;;24.79;22.68;102149.19;5039110;28;20194;-67
2021/05/31 09:27:00;;;;;;;5.90;3.80;;;;;;;24.99;22.32;102142.41;5049502;28;20209;-67
2021/05/31 09:29:26;;;;;;;4.90;3.60;;;;;;;25.35;22.28;102145.81;5045791;28;20529;-69
2021/05/31 09:31:58;;;;;;;6.67;3.77;;;;;;;25.41;22.48;102135.88;5058382;28;20432;-66
2021/05/31 09:34:24;;;;;;;4.03;3.70;;;;;;;23.44;25.27;102138.22;5059019;28;20676;-68
2021/05/31 09:36:54;;;;;;;5.37;4.03;;;;;;;24.92;23.82;102144.34;5058016;28;20451;-66
2021/05/31 09:39:38;;;;;;;4.00;3.60;;;;;;;23.85;24.41;102144.38;5058555;28;20501;-64
2021/05/31 09:42:07;;;;;;;5.30;4.80;;;;;;;25.88;22.63;102145.06;5049765;28;20456;-63
2021/05/31 09:44:32;;;;;;;6.80;4.20;;;;;;;27.21;21.22;102135.09;5040949;28;20455;-64
2021/05/31 09:46:57;;;;;;;4.60;4.00;;;;;;;27.62;20.50;102120.19;5039460;28;20437;-64
2021/05/31 09:49:26;;;;;;;4.17;3.87;;;;;;;28.59;20.13;102110.75;5039127;28;20209;-64
2021/05/31 09:52:07;;;;;;;4.60;4.00;;;;;;;28.94;19.71;102118.13;5049040;28;20180;-65
2021/05/31 09:54:41;;;;;;;4.77;4.30;;;;;;;28.60;20.81;102123.19;5053644;28;20435;-64
2021/05/31 09:57:16;;;;;;;4.80;4.20;;;;;;;27.43;21.99;102117.34;5045327;28;20447;-64
2021/05/31 09:59:44;;;;;;;5.30;3.97;;;;;;;28.51;21.35;102113.75;5038655;28;20517;-63
2021/05/31 10:02:13;;;;;;;4.80;4.40;;;;;;;25.83;23.77;102106.94;5039024;28;20444;-64
2021/05/31 10:04:59;;;;;;;4.87;4.27;;;;;;;27.30;22.55;102111.56;5046858;28;20533;-65
2021/05/31 10:07:39;;;;;;;3.87;3.57;;;;;;;26.36;23.21;102100.72;5040134;28;20455;-64
2021/05/31 10:10:05;;;;;;;5.37;4.23;;;;;;;26.58;23.80;102110.66;5037992;28;20714;-64
2021/05/31 10:12:30;;;;;;;4.33;3.93;;;;;;;25.42;24.46;102103.78;5052828;28;20442;-64
2021/05/31 10:14:56;;;;;;;5.50;4.40;;;;;;;28.42;21.84;102092.69;5045429;28;20494;-64
2021/05/31 10:17:25;;;;;;;4.27;3.80;;;;;;;28.08;21.89;102088.81;5039020;28;20236;-64
2021/05/31 10:19:50;;;;;;;5.60;4.43;;;;;;;25.01;24.75;102098.75;5052617;28;20182;-64
2021/05/31 10:22:16;;;;;;;5.33;4.47;;;;;;;25.65;24.79;102091.50;5042469;28;20450;-63
2021/05/31 10:24:42;;;;;;;5.30;4.30;;;;;;;26.60;23.72;102094.53;5039913;28;20234;-63
2021/05/31 10:27:10;;;;;;;5.80;4.50;;;;;;;28.05;21.79;102079.09;5051427;28;20441;-64
2021/05/31 10:29:35;;;;;;;4.50;4.03;;;;;;;26.70;23.32;102087.94;5040153;28;20595;-62
2021/05/31 10:32:09;;;;;;;5.20;4.03;;;;;;;27.80;21.68;102087.25;5037256;28;20431;-63
2021/05/31 10:34:45;;;;;;;4.37;3.97;;;;;;;28.65;21.40;102077.41;5046883;28;20393;-64
2021/05/31 10:37:21;;;;;;;4.63;4.23;;;;;;;26.19;24.77;102087.91;5040082;28;20436;-64
2021/05/31 10:40:07;;;;;;;6.43;4.07;;;;;;;27.12;23.93;102078.38;5049675;28;20494;-62
2021/05/31 10:42:49;;;;;;;5.40;4.30;;;;;;;26.83;22.92;102078.56;5056069;28;20448;-60
2021/05/31 10:45:17;;;;;;;5.43;4.20;;;;;;;27.78;21.60;102073.06;5054226;28;20485;-61
2021/05/31 10:47:42;;;;;;;4.57;3.97;;;;;;;27.08;22.72;102066.91;5039056;28;20433;-62
2021/05/31 10:50:15;;;;;;;4.73;4.33;;;;;;;28.15;21.94;102054.56;5037016;28;20523;-61
2021/05/31 10:52:51;;;;;;;5.07;4.57;;;;;;;25.83;23.81;102065.97;5036837;28;20173;-60
2021/05/31 10:55:16;;;;;;;5.93;4.50;;;;;;;26.28;24.31;102064.50;5038065;28;20420;-61
2021/05/31 10:57:42;;;;;;;5.13;4.50;;;;;;;28.98;21.62;102058.84;5051273;28;20845;-61
2021/05/31 11:00:08;;;;;;;4.40;4.00;;;;;;;26.01;24.61;102061.81;5052926;28;20189;-61
2021/05/31 11:02:33;;;;;;;5.13;4.03;;;;;;;26.15;23.83;102066.72;5058929;28;20196;-62
2021/05/31 11:05:09;;;;;;;5.27;4.10;;;;;;;27.16;23.59;102061.25;5077921;28;20427;-60
2021/05/31 11:07:34;;;;;;;4.60;4.20;;;;;;;27.53;22.04;102057.97;5047113;28;20459;-61
2021/05/31 11:10:00;;;;;;;4.47;4.07;;;;;;;29.08;21.38;102045.88;5040237;28;20472;-60
2021/05/31 11:12:32;;;;;;;4.33;3.93;;;;;;;28.31;21.57;102054.75;5046898;28;20174;-60
2021/05/31 11:15:32;;;;;;;4.17;3.87;;;;;;;25.94;24.29;102058.47;5041495;28;20178;-60
2021/05/31 11:17:58;;;;;;;4.60;4.17;;;;;;;25.04;25.20;102063.09;5047232;28;20486;-60
2021/05/31 11:20:27;;;;;;;6.07;4.93;;;;;;;24.75;26.30;102064.84;5043921;28;20437;-59
2021/05/31 11:22:58;;;;;;;4.83;4.33;;;;;;;24.25;26.46;102056.41;5045003;28;20312;-60
2021/05/31 11:25:25;;;;;;;5.00;4.50;;;;;;;23.42;27.65;102062.88;5056053;28;20490;-64
2021/05/31 11:27:53;;;;;;;5.00;4.60;;;;;;;25.03;25.90;102050.66;5038530;28;20467;-61
2021/05/31 11:30:22;;;;;;;5.10;4.60;;;;;;;23.88;27.26;102047.56;5040611;28;20454;-61
2021/05/31 11:32:47;;;;;;;5.63;5.10;;;;;;;24.29;26.79;102050.97;5041608;28;20448;-60
2021/05/31 11:35:14;;;;;;;5.83;4.60;;;;;;;24.01;27.28;102045.50;5057265;28;20415;-62